createdAt,value
2019-02-08T00:02:09.070Z,99.40
2019-02-08T00:04:39.717Z,99.40
2019-02-08T00:07:10.487Z,99.40
2019-02-08T00:09:41.105Z,99.40
2019-02-08T00:12:11.429Z,99.30
2019-02-08T00:14:42.407Z,99.50
2019-02-08T00:17:12.759Z,99.50
2019-02-08T00:19:43.351Z,99.50
2019-02-08T00:22:14.041Z,99.50
2019-02-08T00:24:44.381Z,99.40
2019-02-08T00:27:14.700Z,99.40
2019-02-08T00:29:46.035Z,99.30
2019-02-08T00:32:16.359Z,99.30
2019-02-08T00:34:46.682Z,99.30
2019-02-08T00:37:17.511Z,99.20
2019-02-08T00:39:47.875Z,99.10
2019-02-08T00:42:18.224Z,98.80
2019-02-08T00:44:48.857Z,98.80
2019-02-08T00:47:19.738Z,98.80
2019-02-08T00:49:50.064Z,98.90
2019-02-08T00:52:20.690Z,98.80
2019-02-08T00:54:51.308Z,98.80
2019-02-08T00:57:21.929Z,98.80
2019-02-08T00:59:52.308Z,98.80
2019-02-08T01:02:22.629Z,98.80
2019-02-08T01:04:53.261Z,98.80
2019-02-08T01:07:24.165Z,98.40
2019-02-08T01:09:54.919Z,98.20
2019-02-08T01:12:25.244Z,98.20
2019-02-08T01:14:56.152Z,98.20
2019-02-08T01:17:26.751Z,98.20
2019-02-08T01:19:57.713Z,98.20
2019-02-08T01:22:28.210Z,98.30
2019-02-08T01:24:58.541Z,98.60
2019-02-08T01:27:29.060Z,98.70
2019-02-08T01:29:59.530Z,98.70
2019-02-08T01:32:29.881Z,98.70
2019-02-08T01:35:00.463Z,98.70
2019-02-08T01:37:31.068Z,98.60
2019-02-08T01:40:01.425Z,98.90
2019-02-08T01:42:31.745Z,98.70
2019-02-08T01:45:02.165Z,98.70
2019-02-08T01:47:32.488Z,98.70
2019-02-08T01:50:04.224Z,98.70
2019-02-08T01:52:36.334Z,98.70
2019-02-08T01:55:07.705Z,98.90
2019-02-08T01:57:38.027Z,99.10
2019-02-08T02:00:20.550Z,98.70
2019-02-08T02:02:51.168Z,98.80
2019-02-08T02:05:21.496Z,98.90
2019-02-08T02:07:51.848Z,98.80
2019-02-08T02:10:29.865Z,98.70
2019-02-08T02:13:00.863Z,98.70
2019-02-08T02:15:31.182Z,98.70
2019-02-08T02:18:01.772Z,98.90
2019-02-08T02:20:35.241Z,98.90
2019-02-08T02:23:07.403Z,99.00
2019-02-08T02:25:37.760Z,98.90
2019-02-08T02:28:08.137Z,98.70
2019-02-08T02:30:38.606Z,98.60
2019-02-08T02:33:11.985Z,98.80
2019-02-08T02:35:42.367Z,98.90
2019-02-08T02:38:13.126Z,99.10
2019-02-08T02:40:43.471Z,99.20
2019-02-08T02:43:14.167Z,99.20
2019-02-08T02:45:44.533Z,99.20
2019-02-08T02:48:15.185Z,99.30
2019-02-08T02:50:45.833Z,99.40
2019-02-08T02:53:16.745Z,99.30
2019-02-08T02:55:47.406Z,99.50
2019-02-08T02:58:17.757Z,99.40
2019-02-08T03:00:48.827Z,99.50
2019-02-08T03:03:19.155Z,99.60
2019-02-08T03:05:49.908Z,99.50
2019-02-08T03:08:20.252Z,99.60
2019-02-08T03:10:50.604Z,99.60
2019-02-08T03:13:21.253Z,99.70
2019-02-08T03:15:51.969Z,99.60
2019-02-08T03:18:22.350Z,99.60
2019-02-08T03:20:53.214Z,99.80
2019-02-08T03:23:24.131Z,99.90
2019-02-08T03:25:54.463Z,99.90
2019-02-08T03:28:25.093Z,99.90
2019-02-08T03:30:56.892Z,99.90
2019-02-08T03:33:27.730Z,99.90
2019-02-08T03:35:58.535Z,99.90
2019-02-08T03:38:29.145Z,99.90
2019-02-08T03:40:59.492Z,99.90
2019-02-08T03:43:29.858Z,99.90
2019-02-08T03:46:00.510Z,99.90
2019-02-08T03:48:31.136Z,99.90
2019-02-08T03:51:01.793Z,99.90
2019-02-08T03:53:32.644Z,99.90
2019-02-08T03:56:03.143Z,99.90
2019-02-08T03:58:33.502Z,99.90
2019-02-08T04:01:04.507Z,99.90
2019-02-08T04:03:35.495Z,99.90
2019-02-08T04:06:05.870Z,99.90
2019-02-08T04:08:36.452Z,99.90
2019-02-08T04:11:06.807Z,99.90
2019-02-08T04:13:38.003Z,99.90
2019-02-08T04:16:08.326Z,99.90
2019-02-08T04:18:38.684Z,99.90
2019-02-08T04:21:10.214Z,99.90
2019-02-08T04:23:40.635Z,99.90
2019-02-08T04:26:10.996Z,99.90
2019-02-08T04:28:41.338Z,99.90
2019-02-08T04:31:11.731Z,99.90
2019-02-08T04:33:42.099Z,99.90
2019-02-08T04:36:12.464Z,99.90
2019-02-08T04:38:42.794Z,99.90
2019-02-08T04:41:13.150Z,99.90
2019-02-08T04:43:43.516Z,99.90
2019-02-08T04:46:14.165Z,99.90
2019-02-08T04:48:44.757Z,99.90
2019-02-08T04:51:15.418Z,99.90
2019-02-08T04:53:45.761Z,99.90
2019-02-08T04:56:16.117Z,99.90
2019-02-08T04:58:47.111Z,99.90
2019-02-08T05:01:17.462Z,99.90
2019-02-08T05:03:47.809Z,99.90
2019-02-08T05:06:18.690Z,99.90
2019-02-08T05:08:49.542Z,99.90
2019-02-08T05:11:19.886Z,99.90
2019-02-08T05:13:50.457Z,99.90
2019-02-08T05:16:21.151Z,99.90
2019-02-08T05:18:51.773Z,99.90
2019-02-08T05:21:22.900Z,99.90
2019-02-08T05:23:53.224Z,99.90
2019-02-08T05:26:23.749Z,99.90
2019-02-08T05:28:54.379Z,99.90
2019-02-08T05:31:24.989Z,99.90
2019-02-08T05:33:55.351Z,99.90
2019-02-08T05:36:25.717Z,99.90
2019-02-08T05:38:56.347Z,99.90
2019-02-08T05:41:26.662Z,99.90
2019-02-08T05:43:57.440Z,99.90
2019-02-08T05:46:28.271Z,99.90
2019-02-08T05:48:58.751Z,99.90
2019-02-08T05:51:29.406Z,99.90
2019-02-08T05:54:00.296Z,99.90
2019-02-08T05:56:30.646Z,99.90
2019-02-08T05:59:01.014Z,99.90
2019-02-08T06:01:31.629Z,99.90
2019-02-08T06:04:02.342Z,99.90
2019-02-08T06:06:33.306Z,99.90
2019-02-08T06:09:05.443Z,99.90
2019-02-08T06:11:35.789Z,99.90
2019-02-08T06:14:06.306Z,99.90
2019-02-08T06:16:36.895Z,99.90
2019-02-08T06:19:07.310Z,99.90
2019-02-08T06:21:37.682Z,99.90
2019-02-08T06:24:08.301Z,99.90
2019-02-08T06:26:38.775Z,99.90
2019-02-08T06:29:09.218Z,99.90
2019-02-08T06:31:39.561Z,99.90
2019-02-08T06:34:09.891Z,99.90
2019-02-08T06:36:40.379Z,99.90
2019-02-08T06:39:10.713Z,99.90
2019-02-08T06:41:41.070Z,99.90
2019-02-08T06:44:11.725Z,99.90
2019-02-08T06:46:42.378Z,99.90
2019-02-08T06:49:12.800Z,99.90
2019-02-08T06:51:43.461Z,99.90
2019-02-08T06:54:14.076Z,99.90
2019-02-08T06:56:55.022Z,99.90
2019-02-08T06:59:27.256Z,99.90
2019-02-08T07:02:08.435Z,99.90
2019-02-08T07:04:42.953Z,99.90
2019-02-08T07:07:15.601Z,99.90
2019-02-08T07:09:50.339Z,99.90
2019-02-08T07:12:34.228Z,99.90
2019-02-08T07:15:14.730Z,99.90
2019-02-08T07:17:46.707Z,99.90
2019-02-08T07:20:18.673Z,99.90
2019-02-08T07:23:06.913Z,99.90
2019-02-08T07:25:39.167Z,99.90
2019-02-08T07:28:11.153Z,99.90
2019-02-08T07:30:46.507Z,99.90
2019-02-08T07:33:30.469Z,99.90
2019-02-08T07:36:02.469Z,99.90
2019-02-08T07:38:40.772Z,99.90
2019-02-08T07:41:18.936Z,99.90
2019-02-08T07:44:02.914Z,99.90
2019-02-08T07:46:43.683Z,99.90
2019-02-08T07:49:18.974Z,99.90
2019-02-08T07:51:57.315Z,99.90
2019-02-08T07:54:32.009Z,99.80
2019-02-08T07:57:04.111Z,99.60
2019-02-08T07:59:52.523Z,99.30
2019-02-08T08:02:42.912Z,99.00
2019-02-08T08:05:15.472Z,99.00
2019-02-08T08:07:47.454Z,99.10
2019-02-08T08:10:25.172Z,98.90
2019-02-08T08:12:57.412Z,98.50
2019-02-08T08:15:47.567Z,98.30
2019-02-08T08:18:28.225Z,97.90
2019-02-08T08:21:06.859Z,97.10
2019-02-08T08:23:41.858Z,96.80
2019-02-08T08:26:19.427Z,96.50
2019-02-08T08:29:03.495Z,95.80
2019-02-08T08:31:45.732Z,95.80
2019-02-08T08:34:20.940Z,95.00
2019-02-08T08:37:18.286Z,94.80
2019-02-08T08:40:41.681Z,94.40
2019-02-08T08:43:22.827Z,94.40
2019-02-08T08:46:21.670Z,94.20
2019-02-08T08:49:48.329Z,94.10
2019-02-08T08:52:32.558Z,92.90
2019-02-08T08:55:28.803Z,91.90
2019-02-08T08:58:12.243Z,90.80
2019-02-08T09:00:59.151Z,91.00
2019-02-08T09:03:50.499Z,90.40
2019-02-08T09:06:37.693Z,90.40
2019-02-08T09:09:21.561Z,90.50
2019-02-08T09:12:01.779Z,90.40
2019-02-08T09:15:05.290Z,90.60
2019-02-08T09:18:03.326Z,90.70
2019-02-08T09:20:53.927Z,90.10
2019-02-08T09:24:18.549Z,89.00
2019-02-08T09:27:04.909Z,88.40
2019-02-08T09:30:08.945Z,87.80
2019-02-08T09:33:05.204Z,87.00
2019-02-08T09:35:46.584Z,87.00
2019-02-08T09:39:06.686Z,87.00
2019-02-08T09:41:57.025Z,86.20
2019-02-08T09:44:53.215Z,85.10
2019-02-08T09:47:48.122Z,86.00
2019-02-08T09:50:55.423Z,84.40
2019-02-08T09:53:59.723Z,84.10
2019-02-08T09:57:06.026Z,83.80
2019-02-08T10:00:05.388Z,83.00
2019-02-08T10:02:55.589Z,82.20
2019-02-08T10:05:39.309Z,79.70
2019-02-08T10:08:35.373Z,78.30
2019-02-08T10:11:28.281Z,76.60
2019-02-08T10:14:30.041Z,77.80
2019-02-08T10:17:28.444Z,77.10
2019-02-08T10:20:36.396Z,77.00
2019-02-08T10:23:50.254Z,77.10
2019-02-08T10:26:58.392Z,76.00
2019-02-08T10:29:58.705Z,75.00
2019-02-08T10:32:48.596Z,74.50
2019-02-08T10:35:46.340Z,73.40
2019-02-08T10:38:48.139Z,71.20
2019-02-08T10:41:32.352Z,71.70
2019-02-08T10:44:44.884Z,73.50
2019-02-08T10:47:54.525Z,74.00
2019-02-08T10:50:51.848Z,74.70
2019-02-08T10:54:02.439Z,74.70
2019-02-08T10:57:16.840Z,73.50
2019-02-08T11:00:43.264Z,73.80
2019-02-08T11:03:59.322Z,72.80
2019-02-08T11:06:49.251Z,73.20
2019-02-08T11:09:43.891Z,69.60
2019-02-08T11:12:49.051Z,69.70
2019-02-08T11:15:46.543Z,68.70
2019-02-08T11:18:53.279Z,67.90
2019-02-08T11:21:23.922Z,68.30
2019-02-08T11:23:54.897Z,67.80
2019-02-08T11:26:25.280Z,67.70
2019-02-08T11:28:56.304Z,66.20
2019-02-08T11:31:26.657Z,67.10
2019-02-08T11:33:57.286Z,66.20
2019-02-08T11:36:27.913Z,64.30
2019-02-08T11:38:58.538Z,64.10
2019-02-08T11:41:29.146Z,66.20
2019-02-08T11:43:59.763Z,65.30
2019-02-08T11:46:30.109Z,65.00
2019-02-08T11:49:00.755Z,64.50
2019-02-08T11:51:31.122Z,64.10
2019-02-08T11:54:02.008Z,66.10
2019-02-08T11:56:32.365Z,66.30
2019-02-08T11:59:03.095Z,64.30
2019-02-08T12:01:35.685Z,64.70
2019-02-08T12:04:06.342Z,64.80
2019-02-08T12:06:36.954Z,65.00
2019-02-08T12:09:11.530Z,65.40
2019-02-08T12:11:41.905Z,64.00
2019-02-08T12:14:12.776Z,62.70
2019-02-08T12:16:43.119Z,62.80
2019-02-08T12:19:13.800Z,62.70
2019-02-08T12:21:44.692Z,61.90
2019-02-08T12:24:15.258Z,61.40
2019-02-08T12:26:45.643Z,61.60
2019-02-08T12:29:15.998Z,60.80
2019-02-08T12:31:46.638Z,62.50
2019-02-08T12:34:17.389Z,63.30
2019-02-08T12:36:47.690Z,64.80
2019-02-08T12:39:18.756Z,64.50
2019-02-08T12:41:49.409Z,64.10
2019-02-08T12:44:20.048Z,63.70
2019-02-08T12:46:50.652Z,64.00
2019-02-08T12:49:21.438Z,61.80
2019-02-08T12:51:52.066Z,60.70
2019-02-08T12:54:22.431Z,61.70
2019-02-08T12:56:52.857Z,60.70
2019-02-08T12:59:23.737Z,60.80
2019-02-08T13:01:54.379Z,60.90
2019-02-08T13:04:25.143Z,60.70
2019-02-08T13:06:55.580Z,60.80
2019-02-08T13:09:26.206Z,60.90
2019-02-08T13:11:56.572Z,60.70
2019-02-08T13:14:27.260Z,60.80
2019-02-08T13:16:58.372Z,60.50
2019-02-08T13:19:29.147Z,60.90
2019-02-08T13:21:59.500Z,60.90
2019-02-08T13:24:29.855Z,61.20
2019-02-08T13:27:00.243Z,61.30
2019-02-08T13:29:30.875Z,61.10
2019-02-08T13:32:01.214Z,60.90
2019-02-08T13:34:31.900Z,59.90
2019-02-08T13:37:02.257Z,60.80
2019-02-08T13:39:33.112Z,60.60
2019-02-08T13:42:03.494Z,59.50
2019-02-08T13:44:34.208Z,59.70
2019-02-08T13:47:04.920Z,59.40
2019-02-08T13:49:35.419Z,58.70
2019-02-08T13:52:06.210Z,58.70
2019-02-08T13:54:36.912Z,58.70
2019-02-08T13:57:07.312Z,59.10
2019-02-08T13:59:38.015Z,59.60
2019-02-08T14:02:08.645Z,59.90
2019-02-08T14:04:39.749Z,60.80
2019-02-08T14:07:10.388Z,60.60
2019-02-08T14:09:40.974Z,60.60
2019-02-08T14:12:11.596Z,60.60
2019-02-08T14:14:41.954Z,60.50
2019-02-08T14:17:12.677Z,60.40
2019-02-08T14:19:43.923Z,61.10
2019-02-08T14:22:14.342Z,62.70
2019-02-08T14:24:44.660Z,62.10
2019-02-08T14:27:15.016Z,62.80
2019-02-08T14:29:45.645Z,62.30
2019-02-08T14:32:16.295Z,63.10
2019-02-08T14:34:46.681Z,61.90
2019-02-08T14:37:17.018Z,62.60
2019-02-08T14:39:47.371Z,63.70
2019-02-08T14:42:17.720Z,64.20
2019-02-08T14:44:48.053Z,64.20
2019-02-08T14:47:18.634Z,66.00
2019-02-08T14:49:50.493Z,64.80
2019-02-08T14:52:21.232Z,64.60
2019-02-08T14:54:51.869Z,64.10
2019-02-08T14:57:22.722Z,63.30
2019-02-08T14:59:53.088Z,65.00
2019-02-08T15:02:24.410Z,65.30
2019-02-08T15:04:55.352Z,64.30
2019-02-08T15:07:25.972Z,64.50
2019-02-08T15:09:56.567Z,63.90
2019-02-08T15:12:26.957Z,63.80
2019-02-08T15:14:57.271Z,65.50
2019-02-08T15:17:27.622Z,65.50
2019-02-08T15:19:58.388Z,65.50
2019-02-08T15:22:29.257Z,65.90
2019-02-08T15:24:59.610Z,66.40
2019-02-08T15:27:30.221Z,66.60
2019-02-08T15:30:00.936Z,66.70
2019-02-08T15:32:32.229Z,67.00
2019-02-08T15:35:02.801Z,67.80
2019-02-08T15:37:33.516Z,68.40
2019-02-08T15:40:06.177Z,69.80
2019-02-08T15:42:36.545Z,69.50
2019-02-08T15:45:17.566Z,70.20
2019-02-08T15:47:48.320Z,70.20
2019-02-08T15:50:19.258Z,71.10
2019-02-08T15:52:49.588Z,70.20
2019-02-08T15:55:30.363Z,71.40
2019-02-08T15:58:00.983Z,72.10
2019-02-08T16:00:31.684Z,72.30
2019-02-08T16:03:02.391Z,72.70
2019-02-08T16:05:33.002Z,71.90
2019-02-08T16:08:03.873Z,72.30
2019-02-08T16:10:34.271Z,72.70
2019-02-08T16:13:04.942Z,73.00
2019-02-08T16:15:35.559Z,73.20
2019-02-08T16:18:06.404Z,73.60
2019-02-08T16:20:37.002Z,73.30
2019-02-08T16:23:07.321Z,74.20
2019-02-08T16:25:37.715Z,74.70
2019-02-08T16:28:08.056Z,75.60
2019-02-08T16:30:38.401Z,75.40
2019-02-08T16:33:09.674Z,75.60
2019-02-08T16:35:40.721Z,76.10
2019-02-08T16:38:11.136Z,75.40
2019-02-08T16:40:41.783Z,76.00
2019-02-08T16:43:12.397Z,76.40
2019-02-08T16:45:43.020Z,77.10
2019-02-08T16:48:14.135Z,77.80
2019-02-08T16:50:44.887Z,79.00
2019-02-08T16:53:15.230Z,79.00
2019-02-08T16:55:45.951Z,79.00
2019-02-08T16:58:16.269Z,79.00
2019-02-08T17:00:46.625Z,78.80
2019-02-08T17:03:17.304Z,78.90
2019-02-08T17:05:47.631Z,79.30
2019-02-08T17:08:17.968Z,79.10
2019-02-08T17:10:48.612Z,79.00
2019-02-08T17:13:19.216Z,78.90
2019-02-08T17:15:49.568Z,80.30
2019-02-08T17:18:19.948Z,80.70
2019-02-08T17:20:51.111Z,80.90
2019-02-08T17:23:21.466Z,81.60
2019-02-08T17:25:52.123Z,81.00
2019-02-08T17:28:22.731Z,81.00
2019-02-08T17:30:53.064Z,81.40
2019-02-08T17:33:23.697Z,82.60
2019-02-08T17:35:54.017Z,83.20
2019-02-08T17:38:24.368Z,84.20
2019-02-08T17:40:54.988Z,84.50
2019-02-08T17:43:25.300Z,84.50
2019-02-08T17:45:55.888Z,84.90
2019-02-08T17:48:26.274Z,84.80
2019-02-08T17:50:56.622Z,83.10
2019-02-08T17:53:27.473Z,83.90
2019-02-08T17:55:58.219Z,83.80
2019-02-08T17:58:28.563Z,84.00
2019-02-08T18:00:59.255Z,85.20
2019-02-08T18:03:29.991Z,85.00
2019-02-08T18:06:00.340Z,85.30
2019-02-08T18:08:30.945Z,86.10
2019-02-08T18:11:01.341Z,86.10
2019-02-08T18:13:31.662Z,86.70
2019-02-08T18:16:02.250Z,86.90
2019-02-08T18:18:32.607Z,86.10
2019-02-08T18:21:02.927Z,86.60
2019-02-08T18:23:33.505Z,87.00
2019-02-08T18:26:04.215Z,86.40
2019-02-08T18:28:34.563Z,87.20
2019-02-08T18:31:04.900Z,87.10
2019-02-08T18:33:35.233Z,88.10
2019-02-08T18:36:05.566Z,87.30
2019-02-08T18:38:36.151Z,87.60
2019-02-08T18:41:06.986Z,88.10
2019-02-08T18:43:37.303Z,88.30
2019-02-08T18:46:07.624Z,88.60
2019-02-08T18:48:38.240Z,88.70
2019-02-08T18:51:08.578Z,88.90
2019-02-08T18:53:38.901Z,89.40
2019-02-08T18:56:09.264Z,89.20
2019-02-08T18:58:39.576Z,88.80
2019-02-08T19:01:09.924Z,89.70
2019-02-08T19:03:40.292Z,90.20
2019-02-08T19:06:10.601Z,90.50
2019-02-08T19:08:40.942Z,90.50
2019-02-08T19:11:11.321Z,90.50
2019-02-08T19:13:41.935Z,90.50
2019-02-08T19:16:12.278Z,90.50
2019-02-08T19:18:42.667Z,90.50
2019-02-08T19:21:13.253Z,91.00
2019-02-08T19:23:43.606Z,91.40
2019-02-08T19:26:13.974Z,91.70
2019-02-08T19:28:44.294Z,91.80
2019-02-08T19:31:14.913Z,91.80
2019-02-08T19:33:45.283Z,91.90
2019-02-08T19:36:15.660Z,92.10
2019-02-08T19:38:45.914Z,91.70
2019-02-08T19:41:16.555Z,91.70
2019-02-08T19:43:46.900Z,92.00
2019-02-08T19:46:17.247Z,92.30
2019-02-08T19:48:47.976Z,92.30
2019-02-08T19:51:18.555Z,92.50
2019-02-08T19:53:49.147Z,92.60
2019-02-08T19:56:19.537Z,92.30
2019-02-08T19:58:49.860Z,92.30
2019-02-08T20:01:20.181Z,92.30
2019-02-08T20:03:50.551Z,92.30
2019-02-08T20:06:21.239Z,92.30
2019-02-08T20:08:51.891Z,92.30
2019-02-08T20:11:22.336Z,92.30
2019-02-08T20:13:52.678Z,92.30
2019-02-08T20:16:22.999Z,92.20
2019-02-08T20:18:53.353Z,92.30
2019-02-08T20:21:23.990Z,92.30
2019-02-08T20:23:54.583Z,92.30
2019-02-08T20:26:25.621Z,92.30
2019-02-08T20:28:56.911Z,92.30
2019-02-08T20:31:27.563Z,92.10
2019-02-08T20:33:58.207Z,92.10
2019-02-08T20:36:28.546Z,92.00
2019-02-08T20:38:59.148Z,92.30
2019-02-08T20:41:29.834Z,92.30
2019-02-08T20:44:00.181Z,92.00
2019-02-08T20:46:30.508Z,91.80
2019-02-08T20:49:00.848Z,91.60
2019-02-08T20:51:31.461Z,91.60
2019-02-08T20:54:01.782Z,91.50
2019-02-08T20:56:32.429Z,91.30
2019-02-08T20:59:02.765Z,91.50
2019-02-08T21:01:33.378Z,91.70
2019-02-08T21:04:03.759Z,91.70
2019-02-08T21:06:34.367Z,91.30
2019-02-08T21:09:06.280Z,91.10
2019-02-08T21:11:36.936Z,90.90
2019-02-08T21:14:07.261Z,90.90
2019-02-08T21:16:37.874Z,90.80
2019-02-08T21:19:08.531Z,90.50
2019-02-08T21:21:38.874Z,90.40
2019-02-08T21:24:09.200Z,90.80
2019-02-08T21:26:39.618Z,90.70
2019-02-08T21:29:09.916Z,90.90
2019-02-08T21:31:40.269Z,91.00
2019-02-08T21:34:10.654Z,91.10
2019-02-08T21:36:41.288Z,91.10
2019-02-08T21:39:11.896Z,90.90
2019-02-08T21:41:42.365Z,91.30
2019-02-08T21:44:12.714Z,91.70
2019-02-08T21:46:43.322Z,91.90
2019-02-08T21:49:14.004Z,92.00
2019-02-08T21:51:44.325Z,92.00
2019-02-08T21:54:14.932Z,92.00
2019-02-08T21:56:45.310Z,92.20
2019-02-08T21:59:15.638Z,92.20
2019-02-08T22:01:45.956Z,92.40
2019-02-08T22:04:16.619Z,92.50
2019-02-08T22:06:46.938Z,92.60
2019-02-08T22:09:17.288Z,92.60
2019-02-08T22:11:47.673Z,92.80
2019-02-08T22:14:17.993Z,92.80
2019-02-08T22:16:48.308Z,93.00
2019-02-08T22:19:18.683Z,93.20
2019-02-08T22:21:49.038Z,93.30
2019-02-08T22:24:19.390Z,93.30
2019-02-08T22:26:49.794Z,93.40
2019-02-08T22:29:20.144Z,93.50
2019-02-08T22:31:50.469Z,93.50
2019-02-08T22:34:21.122Z,93.60
2019-02-08T22:36:51.470Z,93.50
2019-02-08T22:39:21.814Z,93.30
2019-02-08T22:41:52.312Z,93.70
2019-02-08T22:44:22.662Z,93.60
2019-02-08T22:46:53.317Z,93.50
2019-02-08T22:49:23.954Z,93.50
2019-02-08T22:51:54.575Z,93.50
2019-02-08T22:54:25.147Z,93.80
2019-02-08T22:56:55.530Z,93.80
2019-02-08T22:59:25.856Z,93.90
2019-02-08T23:01:56.197Z,93.80
2019-02-08T23:04:26.859Z,93.80
2019-02-08T23:06:57.178Z,93.50
2019-02-08T23:09:27.499Z,93.80
2019-02-08T23:11:58.420Z,93.80
2019-02-08T23:14:29.010Z,93.80
2019-02-08T23:16:59.354Z,93.80
2019-02-08T23:19:29.709Z,93.80
2019-02-08T23:22:00.038Z,93.80
2019-02-08T23:24:30.359Z,93.50
2019-02-08T23:27:00.716Z,93.40
2019-02-08T23:29:31.066Z,93.40
2019-02-08T23:32:01.427Z,93.60
2019-02-08T23:34:31.765Z,93.80
2019-02-08T23:37:02.956Z,93.80
2019-02-08T23:39:33.570Z,94.00
2019-02-08T23:42:03.949Z,93.90
2019-02-08T23:44:34.296Z,94.00
2019-02-08T23:47:04.623Z,93.60
2019-02-08T23:49:35.309Z,93.50
2019-02-08T23:52:05.923Z,93.10
2019-02-08T23:54:36.359Z,92.60
2019-02-08T23:57:06.774Z,92.50
2019-02-08T23:59:38.373Z,92.50
